Time;durP1;ratioP1;P1;durP2;ratioP2;P2;SDS_P1;SDS_P2;PMS_P1;PMS_P2;Temp;Humidity;BMP_temperature;BMP_pressure;BME280_temperature;BME280_humidity;BME280_pressure;Samples;Min_cycle;Max_cycle;Signal;HPM_P1;HPM_P2
2024/01/27 00:01:05;;;;;;;53.38;50.78;;;;;;;8.23;65.80;103401.25;5071522;28;20029;-74
2024/01/27 00:03:30;;;;;;;53.35;50.88;;;;;;;8.22;65.80;103396.06;5063759;28;20091;-72
2024/01/27 00:05:55;;;;;;;55.35;52.75;;;;;;;8.21;65.69;103391.66;5064735;28;20370;-72
2024/01/27 00:08:21;;;;;;;59.63;56.72;;;;;;;8.19;65.71;103391.84;5058079;28;20028;-72
2024/01/27 00:10:47;;;;;;;56.78;54.17;;;;;;;8.18;65.88;103394.69;5063878;28;20053;-73
2024/01/27 00:13:13;;;;;;;58.40;55.60;;;;;;;8.16;65.73;103397.50;5071835;28;20067;-73
2024/01/27 00:15:38;;;;;;;56.72;54.10;;;;;;;8.15;65.92;103395.84;5072227;28;20056;-72
2024/01/27 00:18:04;;;;;;;53.22;50.67;;;;;;;8.16;65.74;103399.38;5067757;28;20464;-73
2024/01/27 00:20:29;;;;;;;59.70;56.88;;;;;;;8.13;65.45;103397.00;5064643;28;20033;-73
2024/01/27 00:22:55;;;;;;;52.70;50.28;;;;;;;8.13;65.72;103405.09;5071932;28;20032;-74
2024/01/27 00:25:20;;;;;;;60.03;57.03;;;;;;;8.10;65.50;103400.88;5071156;28;20056;-73
2024/01/27 00:27:46;;;;;;;57.35;54.55;;;;;;;8.09;65.75;103396.50;5067111;28;20045;-73
2024/01/27 00:30:11;;;;;;;54.05;51.33;;;;;;;8.08;65.83;103407.41;5054183;28;20071;-72
2024/01/27 00:32:37;;;;;;;57.22;54.53;;;;;;;8.06;65.74;103404.88;5042242;28;20044;-72
2024/01/27 00:35:03;;;;;;;56.45;53.75;;;;;;;8.06;65.74;103404.88;5071568;28;20031;-73
2024/01/27 00:37:29;;;;;;;55.58;52.97;;;;;;;8.04;65.81;103404.22;5069625;28;20063;-72
2024/01/27 00:39:54;;;;;;;54.00;51.35;;;;;;;8.03;65.71;103407.88;5063969;28;20370;-73
2024/01/27 00:42:23;;;;;;;54.30;51.58;;;;;;;8.01;65.68;103405.38;5062656;28;20281;-73
2024/01/27 00:44:50;;;;;;;58.22;55.47;;;;;;;8.00;65.47;103408.22;5067069;28;20123;-73
2024/01/27 00:47:15;;;;;;;58.92;56.08;;;;;;;7.99;65.69;103410.06;5058835;28;20067;-73
2024/01/27 00:49:41;;;;;;;57.17;54.17;;;;;;;7.97;65.73;103397.78;5057485;28;20033;-73
2024/01/27 00:52:06;;;;;;;53.63;50.97;;;;;;;7.97;65.68;103397.78;5065759;28;20103;-73
2024/01/27 00:54:32;;;;;;;52.45;50.00;;;;;;;7.96;65.63;103401.47;5069032;28;20097;-73
2024/01/27 00:56:57;;;;;;;55.03;52.40;;;;;;;7.93;65.62;103402.63;5066230;28;20366;-73
2024/01/27 00:59:22;;;;;;;55.78;53.08;;;;;;;7.92;65.75;103408.19;5070977;28;20029;-73
2024/01/27 01:01:48;;;;;;;54.97;52.42;;;;;;;7.90;65.64;103400.25;5069601;28;20029;-73
2024/01/27 01:04:13;;;;;;;57.05;53.88;;;;;;;7.89;65.70;103398.59;5070844;28;20116;-75
2024/01/27 01:06:40;;;;;;;49.95;47.58;;;;;;;7.88;65.58;103406.81;5071483;28;20033;-74
2024/01/27 01:09:05;;;;;;;54.08;50.72;;;;;;;7.86;65.70;103409.66;5070222;28;20036;-74
2024/01/27 01:11:31;;;;;;;57.53;54.72;;;;;;;7.85;65.51;103410.66;5069004;28;20041;-73
2024/01/27 01:13:56;;;;;;;50.25;47.85;;;;;;;7.85;65.67;103407.13;5071665;28;20510;-73
2024/01/27 01:16:22;;;;;;;58.53;54.92;;;;;;;7.84;65.74;103414.34;5069978;28;20041;-73
2024/01/27 01:18:47;;;;;;;53.97;50.90;;;;;;;7.83;65.68;103414.50;5068180;28;20373;-73
2024/01/27 01:21:13;;;;;;;54.78;52.17;;;;;;;7.80;65.72;103408.44;5066185;28;20477;-74
2024/01/27 01:23:38;;;;;;;53.35;50.90;;;;;;;7.79;65.73;103414.00;5055019;28;20035;-74
2024/01/27 01:26:04;;;;;;;52.58;50.08;;;;;;;7.78;65.75;103426.56;5049555;28;20037;-73
2024/01/27 01:28:29;;;;;;;54.13;51.42;;;;;;;7.77;65.59;103421.38;5056808;28;20123;-73
2024/01/27 01:30:55;;;;;;;52.70;50.22;;;;;;;7.74;65.69;103419.84;5070968;28;20469;-74
2024/01/27 01:33:21;;;;;;;53.90;51.10;;;;;;;7.73;65.67;103417.31;5069394;28;20477;-74
2024/01/27 01:35:46;;;;;;;50.47;48.03;;;;;;;7.72;65.82;103415.63;5070291;28;20091;-73
2024/01/27 01:38:12;;;;;;;48.42;45.97;;;;;;;7.70;65.81;103412.25;5070972;28;20530;-73
2024/01/27 01:40:37;;;;;;;56.67;53.70;;;;;;;7.69;65.82;103415.94;5070876;28;20064;-74
2024/01/27 01:43:04;;;;;;;56.80;54.15;;;;;;;7.68;65.75;103412.38;5064726;28;20033;-73
2024/01/27 01:45:29;;;;;;;56.67;53.97;;;;;;;7.68;65.64;103416.94;5041796;28;20044;-73
2024/01/27 01:47:55;;;;;;;48.75;46.50;;;;;;;7.66;65.73;103413.53;5071452;28;20082;-72
2024/01/27 01:50:21;;;;;;;51.63;49.00;;;;;;;7.65;65.68;103425.31;5070406;28;20472;-73
2024/01/27 01:52:49;;;;;;;54.42;51.88;;;;;;;7.64;65.76;103424.47;5067952;28;20044;-72
2024/01/27 01:55:16;;;;;;;53.67;51.17;;;;;;;7.63;65.65;103421.94;5064790;28;20119;-72
2024/01/27 01:57:43;;;;;;;52.13;49.50;;;;;;;7.59;65.72;103424.94;5056259;28;20059;-72
2024/01/27 02:00:09;;;;;;;52.17;49.72;;;;;;;7.58;65.47;103423.28;5071312;28;20032;-72
2024/01/27 02:02:34;;;;;;;56.58;53.85;;;;;;;7.58;65.75;103419.72;5049970;28;20028;-73
2024/01/27 02:05:00;;;;;;;52.80;50.38;;;;;;;7.56;65.81;103419.06;5072787;28;20389;-73
2024/01/27 02:07:25;;;;;;;52.33;49.72;;;;;;;7.55;65.65;103425.41;5072919;28;20190;-73
2024/01/27 02:09:51;;;;;;;56.00;52.90;;;;;;;7.54;65.96;103423.75;5073893;28;20048;-73
2024/01/27 02:12:16;;;;;;;51.63;49.00;;;;;;;7.53;65.73;103411.28;5072238;28;20037;-72
2024/01/27 02:14:41;;;;;;;52.35;49.92;;;;;;;7.51;65.65;103408.75;5061060;28;20029;-74
2024/01/27 02:17:07;;;;;;;53.60;51.08;;;;;;;7.51;65.67;103424.03;5071456;28;20025;-73
2024/01/27 02:19:32;;;;;;;54.50;51.90;;;;;;;7.49;65.77;103421.50;5072870;28;20066;-73
2024/01/27 02:21:58;;;;;;;58.20;55.38;;;;;;;7.48;65.68;103421.66;5067046;28;20029;-73
2024/01/27 02:24:23;;;;;;;56.42;53.75;;;;;;;7.47;65.69;103422.66;5072952;28;20036;-72
2024/01/27 02:26:48;;;;;;;52.95;50.45;;;;;;;7.45;65.57;103428.19;5073870;28;20043;-73
2024/01/27 02:29:14;;;;;;;58.63;55.92;;;;;;;7.44;65.61;103426.53;5073161;28;20068;-73
2024/01/27 02:31:39;;;;;;;53.45;50.85;;;;;;;7.43;65.67;103422.13;5070468;28;20029;-74
2024/01/27 02:34:05;;;;;;;53.08;50.65;;;;;;;7.42;65.76;103433.88;5073403;28;20107;-72
2024/01/27 02:36:30;;;;;;;55.72;53.03;;;;;;;7.40;65.67;103424.28;5071449;28;20047;-74
2024/01/27 02:38:55;;;;;;;51.45;48.95;;;;;;;7.41;65.74;103428.66;5070075;28;20537;-73
2024/01/27 02:41:21;;;;;;;50.13;47.70;;;;;;;7.39;65.54;103433.38;5060728;28;20079;-73
2024/01/27 02:43:46;;;;;;;52.20;49.45;;;;;;;7.36;65.75;103439.91;5069499;28;20061;-74
2024/01/27 02:46:12;;;;;;;52.75;50.28;;;;;;;7.36;65.63;103432.69;5064178;28;20040;-74
2024/01/27 02:48:42;;;;;;;51.38;48.78;;;;;;;7.35;65.71;103439.03;5066435;28;20025;-73
2024/01/27 02:51:08;;;;;;;49.33;47.00;;;;;;;7.34;65.56;103437.34;5060713;28;20044;-75
2024/01/27 02:53:33;;;;;;;58.25;54.55;;;;;;;7.33;65.58;103427.63;5072633;28;20036;-74
2024/01/27 02:55:58;;;;;;;47.85;45.60;;;;;;;7.33;65.59;103429.44;5072231;28;20038;-73
2024/01/27 02:58:24;;;;;;;51.60;49.17;;;;;;;7.32;65.62;103425.91;5070924;28;20031;-74
2024/01/27 03:00:49;;;;;;;51.40;48.92;;;;;;;7.31;65.59;103423.41;5055930;28;20510;-76
2024/01/27 03:03:15;;;;;;;52.00;49.55;;;;;;;7.29;65.64;103426.22;5073671;28;20035;-72
2024/01/27 03:05:40;;;;;;;55.90;53.20;;;;;;;7.28;65.62;103426.38;5073135;28;20427;-75
2024/01/27 03:08:06;;;;;;;51.95;49.50;;;;;;;7.26;65.75;103429.22;5068994;28;20111;-73
2024/01/27 03:10:32;;;;;;;50.33;47.75;;;;;;;7.26;65.66;103428.38;5062555;28;20052;-73
2024/01/27 03:12:57;;;;;;;50.42;48.08;;;;;;;7.24;65.76;103425.84;5073066;28;20078;-73
2024/01/27 03:15:22;;;;;;;51.00;48.63;;;;;;;7.23;65.33;103423.28;5063171;28;20044;-73
2024/01/27 03:17:48;;;;;;;48.90;46.60;;;;;;;7.22;65.41;103435.06;5028173;28;20362;-74
2024/01/27 03:20:13;;;;;;;53.33;50.88;;;;;;;7.21;65.55;103434.22;5069490;28;20032;-74
2024/01/27 03:22:40;;;;;;;53.13;50.53;;;;;;;7.19;65.65;103436.22;5072686;28;20033;-73
2024/01/27 03:25:06;;;;;;;53.58;50.95;;;;;;;7.18;65.67;103437.19;5065693;28;20051;-74
2024/01/27 03:27:32;;;;;;;51.72;49.28;;;;;;;7.17;65.54;103435.53;5059491;28;20106;-73
2024/01/27 03:30:01;;;;;;;52.33;49.75;;;;;;;7.17;65.56;103434.69;5073123;28;20059;-74
2024/01/27 03:32:26;;;;;;;49.13;46.60;;;;;;;7.13;65.65;103443.06;5070920;28;20032;-74
2024/01/27 03:34:51;;;;;;;57.03;54.38;;;;;;;7.13;65.73;103437.69;5072543;28;20025;-75
2024/01/27 03:37:17;;;;;;;51.92;49.45;;;;;;;7.11;65.43;103444.22;5068641;28;20072;-73
2024/01/27 03:39:42;;;;;;;52.22;49.42;;;;;;;7.10;65.81;103435.28;5063904;28;20532;-74
2024/01/27 03:42:08;;;;;;;45.42;43.33;;;;;;;7.10;65.52;103442.50;5072077;28;20060;-74
2024/01/27 03:44:33;;;;;;;53.50;50.75;;;;;;;7.09;65.66;103440.81;5071936;28;20028;-74
2024/01/27 03:46:59;;;;;;;50.50;48.15;;;;;;;7.07;65.61;103440.97;5072809;28;20036;-74
2024/01/27 03:49:24;;;;;;;52.40;49.92;;;;;;;7.06;65.46;103436.59;5068685;28;20037;-73
2024/01/27 03:51:50;;;;;;;48.63;46.22;;;;;;;7.05;65.49;103442.13;5052678;28;20043;-73
2024/01/27 03:54:15;;;;;;;49.80;47.33;;;;;;;7.04;65.71;103443.13;5071889;28;20083;-73
2024/01/27 03:56:41;;;;;;;47.70;45.20;;;;;;;7.03;65.54;103439.59;5072238;28;20036;-73
2024/01/27 03:59:09;;;;;;;55.92;53.22;;;;;;;7.02;65.74;103443.28;5071348;28;20499;-75
2024/01/27 04:01:35;;;;;;;52.97;49.35;;;;;;;7.01;65.38;103438.06;5060997;28;20029;-73
2024/01/27 04:04:00;;;;;;;51.60;48.75;;;;;;;6.99;65.51;103435.53;5072285;28;20046;-74
2024/01/27 04:06:26;;;;;;;50.35;47.85;;;;;;;6.99;65.77;103437.38;5071157;28;20586;-74
2024/01/27 04:08:51;;;;;;;50.92;48.42;;;;;;;6.98;65.68;103438.34;5067206;28;20381;-74
2024/01/27 04:11:23;;;;;;;48.70;46.38;;;;;;;6.96;65.57;103440.38;5061420;28;20496;-74
2024/01/27 04:13:52;;;;;;;51.78;49.17;;;;;;;6.96;65.53;103440.38;5071595;28;20020;-73
2024/01/27 04:16:18;;;;;;;50.25;47.90;;;;;;;6.93;65.68;103433.47;5072165;28;20036;-75
2024/01/27 04:18:43;;;;;;;53.03;50.42;;;;;;;6.93;65.54;103433.47;5070543;28;20369;-73
2024/01/27 04:21:08;;;;;;;49.03;46.72;;;;;;;6.91;65.57;103438.97;5062886;28;20459;-73
2024/01/27 04:23:34;;;;;;;48.88;46.55;;;;;;;6.91;65.51;103440.81;5054216;28;20487;-73
2024/01/27 04:26:00;;;;;;;48.40;46.13;;;;;;;6.89;65.49;103429.38;5070476;28;20115;-73
2024/01/27 04:28:25;;;;;;;50.42;48.03;;;;;;;6.88;65.75;103435.75;5070646;28;20025;-73
2024/01/27 04:30:52;;;;;;;45.50;43.20;;;;;;;6.86;65.58;103435.91;5065706;28;20044;-72
2024/01/27 04:33:17;;;;;;;47.55;45.35;;;;;;;6.85;65.50;103444.94;5070807;28;20170;-72
2024/01/27 04:35:42;;;;;;;53.78;51.17;;;;;;;6.84;65.47;103445.09;5055294;28;20047;-74
2024/01/27 04:38:09;;;;;;;49.65;47.25;;;;;;;6.84;65.67;103450.47;5071554;28;20039;-73
2024/01/27 04:40:35;;;;;;;45.92;43.72;;;;;;;6.82;65.56;103437.19;5068048;28;20041;-72
2024/01/27 04:43:01;;;;;;;50.45;48.05;;;;;;;6.82;65.50;103452.47;5070314;28;20032;-72
2024/01/27 04:45:27;;;;;;;52.50;49.78;;;;;;;6.79;65.59;103445.56;5071667;28;20035;-73
2024/01/27 04:47:53;;;;;;;50.90;48.40;;;;;;;6.78;65.76;103451.06;5070197;28;20041;-73
2024/01/27 04:50:19;;;;;;;49.53;47.22;;;;;;;6.76;65.53;103445.03;5069564;28;20041;-76
2024/01/27 04:52:45;;;;;;;49.15;46.72;;;;;;;6.76;65.48;103447.72;5053069;28;20116;-73
2024/01/27 04:55:10;;;;;;;49.33;47.08;;;;;;;6.74;65.64;103449.69;5053605;28;20021;-73
2024/01/27 04:57:36;;;;;;;46.53;44.33;;;;;;;6.73;65.70;103443.47;5072025;28;20086;-73
2024/01/27 05:00:01;;;;;;;50.20;47.85;;;;;;;6.72;65.39;103441.78;5071053;28;20036;-73
2024/01/27 05:02:27;;;;;;;48.15;45.88;;;;;;;6.72;65.47;103452.53;5067597;28;20045;-73
2024/01/27 05:04:52;;;;;;;52.42;49.78;;;;;;;6.70;65.46;103449.13;5037381;28;20119;-73
2024/01/27 05:07:18;;;;;;;50.20;47.70;;;;;;;6.69;65.63;103450.97;5071455;28;20041;-73
2024/01/27 05:09:43;;;;;;;47.42;45.13;;;;;;;6.68;65.54;103454.69;5050115;28;20493;-72
2024/01/27 05:12:08;;;;;;;49.00;46.72;;;;;;;6.68;65.51;103453.84;5062958;28;20111;-73
2024/01/27 05:14:34;;;;;;;44.40;42.30;;;;;;;6.67;65.57;103460.19;5054372;28;20089;-73
2024/01/27 05:16:59;;;;;;;46.80;44.55;;;;;;;6.66;65.58;103453.97;5069933;28;20370;-73
2024/01/27 05:19:25;;;;;;;56.08;53.15;;;;;;;6.64;65.38;103453.28;5071178;28;20032;-72
2024/01/27 05:21:50;;;;;;;49.45;46.25;;;;;;;6.64;65.33;103447.06;5063989;28;20040;-72
2024/01/27 05:24:16;;;;;;;51.30;48.88;;;;;;;6.63;65.47;103440.84;5070825;28;20430;-73
2024/01/27 05:26:41;;;;;;;49.33;46.78;;;;;;;6.63;65.55;103450.75;5071674;28;20032;-73
2024/01/27 05:29:06;;;;;;;51.10;48.60;;;;;;;6.61;65.56;103429.41;5071579;28;20035;-73
2024/01/27 05:31:32;;;;;;;48.33;46.03;;;;;;;6.61;65.71;103434.78;5071448;28;20025;-73
2024/01/27 05:33:59;;;;;;;54.53;51.88;;;;;;;6.60;65.45;103432.22;5072453;28;20085;-73
2024/01/27 05:36:24;;;;;;;46.78;44.35;;;;;;;6.59;65.43;103430.56;5073909;28;20024;-73
2024/01/27 05:38:50;;;;;;;52.55;49.95;;;;;;;6.58;65.61;103431.56;5074724;28;20059;-73
2024/01/27 05:41:15;;;;;;;49.00;46.08;;;;;;;6.58;65.64;103436.94;5074342;28;20032;-73
2024/01/27 05:43:41;;;;;;;49.17;46.90;;;;;;;6.57;65.43;103440.59;5072898;28;20054;-73
2024/01/27 05:46:09;;;;;;;45.22;43.10;;;;;;;6.55;65.46;103434.53;5059420;28;20491;-73
2024/01/27 05:48:34;;;;;;;47.20;44.97;;;;;;;6.53;65.75;103426.63;5067260;28;20029;-73
2024/01/27 05:51:01;;;;;;;47.67;45.28;;;;;;;6.53;65.40;103428.44;5066919;28;20481;-73
2024/01/27 05:53:27;;;;;;;42.55;40.53;;;;;;;6.52;65.46;103432.16;5088543;28;20035;-73
2024/01/27 05:56:02;;;;;;;49.17;46.70;;;;;;;6.49;65.26;103438.66;5065315;28;20468;-73
2024/01/27 05:58:27;;;;;;;45.83;43.63;;;;;;;6.49;65.47;103435.97;5070824;28;20024;-73
2024/01/27 06:00:52;;;;;;;49.75;47.25;;;;;;;6.47;65.67;103433.44;5074271;28;20458;-73
2024/01/27 06:03:18;;;;;;;47.55;45.35;;;;;;;6.46;65.31;103433.59;5074738;28;20071;-72
2024/01/27 06:05:43;;;;;;;46.67;44.47;;;;;;;6.45;65.56;103431.88;5056153;28;20441;-75
2024/01/27 06:08:09;;;;;;;43.33;41.17;;;;;;;6.45;65.52;103439.94;5067308;28;20048;-72
2024/01/27 06:10:38;;;;;;;42.15;40.15;;;;;;;6.43;65.77;103432.06;5074092;28;20485;-72
2024/01/27 06:13:04;;;;;;;47.95;45.63;;;;;;;6.43;65.65;103434.75;5074260;28;20024;-75
2024/01/27 06:15:29;;;;;;;49.45;46.72;;;;;;;6.41;65.55;103425.13;5069573;28;20483;-72
2024/01/27 06:17:55;;;;;;;44.63;42.42;;;;;;;6.41;65.34;103430.50;5072458;28;20024;-74
2024/01/27 06:20:20;;;;;;;49.00;46.70;;;;;;;6.40;65.48;103432.34;5073744;28;20033;-75
2024/01/27 06:22:46;;;;;;;47.55;45.30;;;;;;;6.38;65.50;103430.81;5071617;28;20484;-72
2024/01/27 06:25:11;;;;;;;47.70;45.42;;;;;;;6.37;65.59;103424.56;5054104;28;20037;-74
2024/01/27 06:27:43;;;;;;;45.20;43.10;;;;;;;6.36;65.50;103416.69;5069027;28;20025;-73
2024/01/27 06:30:10;;;;;;;48.05;45.83;;;;;;;6.34;65.64;103424.88;5073156;28;20489;-73
2024/01/27 06:32:35;;;;;;;47.08;44.88;;;;;;;6.32;65.62;103428.72;5039938;28;20029;-73
2024/01/27 06:35:01;;;;;;;49.33;46.80;;;;;;;6.31;65.75;103438.59;5058294;28;20048;-73
2024/01/27 06:37:26;;;;;;;45.45;43.28;;;;;;;6.29;65.66;103430.69;5068695;28;20118;-73
2024/01/27 06:39:52;;;;;;;44.85;42.72;;;;;;;6.29;65.51;103430.69;5073710;28;20024;-73
2024/01/27 06:42:17;;;;;;;46.15;43.95;;;;;;;6.28;65.59;103438.91;5053050;28;20043;-73
2024/01/27 06:44:42;;;;;;;47.53;45.22;;;;;;;6.27;65.57;103445.25;5073515;28;20037;-75
2024/01/27 06:47:08;;;;;;;50.13;47.65;;;;;;;6.25;65.53;103448.09;5071228;28;20040;-74
2024/01/27 06:49:33;;;;;;;53.42;50.47;;;;;;;6.24;65.74;103448.25;5073470;28;20377;-73
2024/01/27 06:52:00;;;;;;;48.30;45.85;;;;;;;6.23;65.44;103455.44;5071535;28;20060;-74
2024/01/27 06:54:25;;;;;;;46.47;44.08;;;;;;;6.23;65.47;103465.34;5065349;28;20028;-74
2024/01/27 06:56:51;;;;;;;47.10;44.80;;;;;;;6.22;65.58;103469.88;5064760;28;20032;-73
2024/01/27 06:59:16;;;;;;;47.58;45.38;;;;;;;6.22;65.43;103477.06;5064270;28;20432;-74
2024/01/27 07:01:48;;;;;;;44.88;42.80;;;;;;;6.21;65.49;103472.69;5058286;28;20120;-74
2024/01/27 07:04:15;;;;;;;49.33;46.97;;;;;;;6.19;65.40;103474.69;5071724;28;20028;-73
2024/01/27 07:06:40;;;;;;;47.78;45.47;;;;;;;6.18;65.87;103481.03;5072828;28;20043;-73
2024/01/27 07:09:06;;;;;;;43.35;40.85;;;;;;;6.16;65.69;103478.50;5069683;28;20024;-74
2024/01/27 07:11:32;;;;;;;47.78;45.25;;;;;;;6.16;65.61;103481.19;5072959;28;20131;-74
2024/01/27 07:13:58;;;;;;;45.17;42.92;;;;;;;6.14;65.68;103479.63;5071790;28;20072;-74
2024/01/27 07:16:24;;;;;;;48.55;46.15;;;;;;;6.15;65.43;103475.94;5073372;28;20535;-73
2024/01/27 07:18:51;;;;;;;48.50;46.20;;;;;;;6.12;65.62;103481.63;5063775;28;20397;-74
2024/01/27 07:21:17;;;;;;;44.55;42.45;;;;;;;6.13;65.57;103477.97;5071733;28;20036;-74
2024/01/27 07:23:43;;;;;;;45.15;43.03;;;;;;;6.12;65.78;103476.25;5072604;28;20036;-75
2024/01/27 07:26:12;;;;;;;49.05;46.63;;;;;;;6.09;65.63;103477.38;5068070;28;20434;-74
2024/01/27 07:28:37;;;;;;;46.40;44.25;;;;;;;6.07;65.59;103466.81;5065418;28;20093;-73
2024/01/27 07:31:03;;;;;;;47.08;44.78;;;;;;;6.07;65.81;103465.94;5060551;28;20049;-74
2024/01/27 07:33:29;;;;;;;43.00;41.00;;;;;;;6.09;65.62;103472.03;5070081;28;20412;-74
2024/01/27 07:35:55;;;;;;;44.65;42.55;;;;;;;6.06;65.78;103478.53;5071881;28;20396;-73
2024/01/27 07:38:20;;;;;;;47.03;44.83;;;;;;;6.06;65.56;103481.22;5069841;28;20610;-74
2024/01/27 07:40:45;;;;;;;49.58;47.28;;;;;;;6.05;65.56;103482.22;5066229;28;20067;-73
2024/01/27 07:43:11;;;;;;;45.08;42.78;;;;;;;6.05;65.75;103481.38;5064458;28;20060;-73
2024/01/27 07:45:36;;;;;;;44.08;41.97;;;;;;;6.03;65.79;103480.66;5048727;28;20037;-73
2024/01/27 07:48:02;;;;;;;46.65;44.35;;;;;;;6.02;65.42;103474.47;5072320;28;20082;-73
2024/01/27 07:50:28;;;;;;;45.03;42.85;;;;;;;6.01;65.47;103478.13;5070286;28;20119;-73
2024/01/27 07:52:53;;;;;;;48.50;45.92;;;;;;;6.01;65.61;103479.97;5068682;28;20120;-73
2024/01/27 07:55:19;;;;;;;46.80;44.60;;;;;;;6.01;65.61;103483.47;5055293;28;20032;-74
2024/01/27 07:57:44;;;;;;;46.08;43.88;;;;;;;6.00;65.62;103475.59;5061693;28;20531;-74
2024/01/27 08:00:10;;;;;;;51.10;48.50;;;;;;;6.01;65.64;103474.59;5053746;28;20044;-74
2024/01/27 08:02:35;;;;;;;41.88;39.80;;;;;;;5.99;65.67;103465.84;5072366;28;20025;-73
2024/01/27 08:05:03;;;;;;;47.22;44.97;;;;;;;5.98;65.62;103467.69;5065348;28;20546;-74
2024/01/27 08:07:28;;;;;;;46.45;44.15;;;;;;;5.98;65.52;103474.88;5072257;28;20138;-74
2024/01/27 08:09:54;;;;;;;45.80;43.63;;;;;;;5.97;65.71;103474.03;5069679;28;20050;-74
2024/01/27 08:12:19;;;;;;;45.25;43.15;;;;;;;5.97;65.59;103474.03;5051272;28;20045;-75
2024/01/27 08:14:44;;;;;;;42.55;40.42;;;;;;;5.96;65.53;103475.03;5052270;28;20036;-74
2024/01/27 08:17:10;;;;;;;48.33;45.85;;;;;;;5.95;65.46;103467.97;5071059;28;20044;-74
2024/01/27 08:19:35;;;;;;;43.22;41.15;;;;;;;5.95;65.44;103469.81;5070358;28;20155;-74
2024/01/27 08:22:01;;;;;;;46.28;44.08;;;;;;;5.95;65.67;103464.44;5056296;28;20033;-80
2024/01/27 08:24:26;;;;;;;46.10;43.90;;;;;;;5.94;65.41;103462.75;5070710;28;20430;-75
2024/01/27 08:26:52;;;;;;;45.17;43.08;;;;;;;5.93;65.54;103477.13;5072163;28;20133;-74
2024/01/27 08:29:17;;;;;;;43.25;41.03;;;;;;;5.92;65.54;103481.66;5069567;28;20075;-74
2024/01/27 08:31:43;;;;;;;47.35;44.78;;;;;;;5.91;65.53;103481.78;5070495;28;20040;-76
2024/01/27 08:34:08;;;;;;;49.53;46.95;;;;;;;5.90;65.62;103489.00;5071690;28;20107;-74
2024/01/27 08:36:34;;;;;;;46.60;44.40;;;;;;;5.89;65.50;103489.97;5070694;28;20161;-74
2024/01/27 08:39:00;;;;;;;45.92;43.22;;;;;;;5.87;65.31;103475.84;5070432;28;20039;-74
2024/01/27 08:41:25;;;;;;;48.38;46.08;;;;;;;5.87;65.46;103475.84;5069303;28;20109;-74
2024/01/27 08:43:51;;;;;;;45.10;43.00;;;;;;;5.85;65.83;103476.00;5056997;28;20043;-74
2024/01/27 08:46:19;;;;;;;51.22;48.63;;;;;;;5.85;65.48;103486.75;5071558;28;20048;-76
2024/01/27 08:48:44;;;;;;;51.53;48.97;;;;;;;5.84;65.60;103494.91;5068986;28;20400;-75
2024/01/27 08:51:11;;;;;;;46.08;43.67;;;;;;;5.84;65.61;103489.56;5071460;28;20279;-76
2024/01/27 08:53:37;;;;;;;41.72;39.72;;;;;;;5.83;65.59;103488.72;5064531;28;20029;-75
2024/01/27 08:56:03;;;;;;;41.15;39.13;;;;;;;5.82;65.62;103480.78;5070458;28;20048;-74
2024/01/27 08:58:28;;;;;;;47.10;44.78;;;;;;;5.81;65.63;103493.38;5070173;28;20473;-75
2024/01/27 09:00:53;;;;;;;47.95;45.72;;;;;;;5.81;65.53;103490.69;5053738;28;20098;-75
2024/01/27 09:03:20;;;;;;;47.50;45.10;;;;;;;5.80;65.64;103489.00;5065731;28;20032;-75
2024/01/27 09:05:46;;;;;;;46.97;44.58;;;;;;;5.80;65.87;103497.06;5070997;28;20032;-74
2024/01/27 09:08:12;;;;;;;47.88;45.42;;;;;;;5.80;65.35;103499.72;5074113;28;20052;-75
2024/01/27 09:10:37;;;;;;;46.25;44.13;;;;;;;5.80;65.58;103501.56;5075313;28;20044;-75
2024/01/27 09:13:03;;;;;;;45.75;43.60;;;;;;;5.78;65.83;103498.19;5070465;28;20119;-75
2024/01/27 09:15:28;;;;;;;43.42;41.28;;;;;;;5.77;65.81;103504.53;5068821;28;20058;-74
2024/01/27 09:17:54;;;;;;;50.55;48.13;;;;;;;5.75;65.78;103499.31;5074201;28;20039;-74
2024/01/27 09:20:19;;;;;;;45.20;42.88;;;;;;;5.75;65.45;103498.47;5074281;28;20032;-74
2024/01/27 09:22:47;;;;;;;46.78;44.33;;;;;;;5.75;65.61;103503.84;5073636;28;20392;-76
2024/01/27 09:25:13;;;;;;;43.20;41.05;;;;;;;5.74;65.80;103496.75;5061584;28;20093;-74
2024/01/27 09:27:39;;;;;;;44.13;41.60;;;;;;;5.74;65.62;103502.13;5073712;28;20033;-74
2024/01/27 09:30:05;;;;;;;42.42;40.38;;;;;;;5.73;65.73;103519.22;5074970;28;20455;-74
2024/01/27 09:32:30;;;;;;;42.63;40.53;;;;;;;5.73;65.94;103528.13;5074947;28;20112;-74
2024/01/27 09:34:56;;;;;;;45.55;43.30;;;;;;;5.73;66.03;103528.13;5067775;28;20444;-74
2024/01/27 09:37:21;;;;;;;44.20;41.80;;;;;;;5.74;65.76;103537.84;5074604;28;20047;-75
2024/01/27 09:39:47;;;;;;;43.20;40.35;;;;;;;5.75;65.91;103530.66;5071833;28;20032;-74
2024/01/27 09:42:15;;;;;;;45.13;42.45;;;;;;;5.74;65.81;103535.16;5056975;28;20535;-75
2024/01/27 09:44:46;;;;;;;49.28;46.97;;;;;;;5.75;65.99;103538.72;5057190;28;20028;-75
2024/01/27 09:47:13;;;;;;;46.03;43.60;;;;;;;5.75;65.65;103541.38;5074638;28;20067;-75
2024/01/27 09:49:41;;;;;;;40.83;38.80;;;;;;;5.75;65.86;103538.72;5060030;28;20036;-76
2024/01/27 09:52:07;;;;;;;47.65;44.90;;;;;;;5.75;65.69;103546.75;5062497;28;20376;-75
2024/01/27 09:54:32;;;;;;;47.28;44.53;;;;;;;5.76;65.86;103545.75;5074626;28;20391;-75
2024/01/27 09:56:58;;;;;;;49.50;46.90;;;;;;;5.77;65.90;103545.63;5066751;28;20035;-74
2024/01/27 09:59:25;;;;;;;45.78;42.47;;;;;;;5.77;65.67;103534.03;5073257;28;20028;-75
2024/01/27 10:01:52;;;;;;;43.10;40.75;;;;;;;5.77;65.86;103534.03;5071658;28;20372;-75
2024/01/27 10:04:22;;;;;;;45.25;42.72;;;;;;;5.77;65.54;103545.63;5069698;28;20025;-75
2024/01/27 10:06:50;;;;;;;42.28;40.05;;;;;;;5.77;65.71;103551.00;5059167;28;20389;-75
2024/01/27 10:09:16;;;;;;;43.78;41.42;;;;;;;5.77;65.40;103552.81;5066998;28;20056;-75
2024/01/27 10:11:46;;;;;;;50.15;47.38;;;;;;;5.77;65.84;103563.53;5069371;28;20041;-74
2024/01/27 10:14:11;;;;;;;48.17;45.58;;;;;;;5.77;65.58;103566.22;5072837;28;20024;-75
2024/01/27 10:16:44;;;;;;;43.30;41.22;;;;;;;5.76;65.58;103560.00;5073004;28;20119;-75
2024/01/27 10:19:20;;;;;;;46.33;43.75;;;;;;;5.76;65.82;103562.69;5068925;28;20052;-75
2024/01/27 10:21:46;;;;;;;51.33;48.42;;;;;;;5.75;65.79;103562.84;5065944;28;20430;-76
2024/01/27 10:24:12;;;;;;;42.80;40.70;;;;;;;5.73;65.59;103562.97;5062410;28;20066;-74
2024/01/27 10:26:37;;;;;;;47.10;43.83;;;;;;;5.73;65.79;103568.34;5073637;28;20025;-75
2024/01/27 10:29:03;;;;;;;44.85;42.47;;;;;;;5.71;65.81;103567.63;5061555;28;20033;-75
2024/01/27 10:31:30;;;;;;;49.22;46.50;;;;;;;5.71;65.74;103580.19;5073082;28;20032;-75
2024/01/27 10:33:56;;;;;;;48.08;45.40;;;;;;;5.71;65.68;103588.25;5067895;28;20025;-75
2024/01/27 10:36:23;;;;;;;47.20;44.60;;;;;;;5.69;66.06;103583.00;5052905;28;20068;-75
2024/01/27 10:38:48;;;;;;;42.28;40.08;;;;;;;5.69;65.79;103577.66;5063648;28;20419;-75
2024/01/27 10:41:25;;;;;;;43.28;41.17;;;;;;;5.69;66.07;103566.91;5069227;28;20025;-75
2024/01/27 10:43:52;;;;;;;50.58;47.88;;;;;;;5.69;65.98;103574.13;5071523;28;20048;-76
2024/01/27 10:46:20;;;;;;;45.55;43.25;;;;;;;5.69;66.21;103576.81;5064417;28;20131;-75
2024/01/27 10:48:51;;;;;;;46.50;44.13;;;;;;;5.70;66.01;103571.31;5070510;28;20155;-74
2024/01/27 10:51:29;;;;;;;45.85;43.15;;;;;;;5.70;66.14;103560.59;5056761;28;20036;-74
2024/01/27 10:54:02;;;;;;;46.05;43.42;;;;;;;5.71;66.09;103561.41;5064368;28;20047;-74
2024/01/27 10:56:31;;;;;;;48.15;45.08;;;;;;;5.70;66.02;103547.19;5065511;28;20289;-74
2024/01/27 10:58:58;;;;;;;47.90;44.90;;;;;;;5.71;66.01;103546.16;5059312;28;20361;-76
2024/01/27 11:01:24;;;;;;;51.13;48.15;;;;;;;5.72;65.82;103544.31;5058496;28;20085;-74
2024/01/27 11:03:54;;;;;;;46.63;43.97;;;;;;;5.71;66.14;103538.13;5065152;28;20052;-74
2024/01/27 11:06:22;;;;;;;49.60;46.38;;;;;;;5.71;66.06;103545.34;5062762;28;20457;-76
2024/01/27 11:08:49;;;;;;;46.92;43.08;;;;;;;5.71;66.21;103551.53;5050058;28;20025;-75
2024/01/27 11:11:15;;;;;;;48.10;44.92;;;;;;;5.71;65.97;103548.00;5056317;28;20563;-74